Time;durP1;ratioP1;P1;durP2;ratioP2;P2;SDS_P1;SDS_P2;PMS_P1;PMS_P2;Temp;Humidity;BMP_temperature;BMP_pressure;BME280_temperature;BME280_humidity;BME280_pressure;Samples;Min_cycle;Max_cycle;Signal;HPM_P1;HPM_P2
2022/06/17 00:00:24;;;;;;;4.25;2.63;;;19.50;64.50;;;;;;5051536;28;20466;-67
2022/06/17 00:02:50;;;;;;;6.03;2.90;;;19.40;64.20;;;;;;5054076;28;20102;-67
2022/06/17 00:05:16;;;;;;;4.07;2.55;;;19.40;64.30;;;;;;5060929;28;20472;-67
2022/06/17 00:07:42;;;;;;;5.13;2.25;;;19.40;64.50;;;;;;5069266;28;20049;-67
2022/06/17 00:10:23;;;;;;;5.40;3.17;;;19.40;64.80;;;;;;5051255;28;20481;-67
2022/06/17 00:12:50;;;;;;;3.33;1.98;;;19.40;65.10;;;;;;5065963;28;20542;-67
2022/06/17 00:15:16;;;;;;;3.50;2.25;;;19.50;65.40;;;;;;5051066;28;20472;-67
2022/06/17 00:18:04;;;;;;;5.95;2.30;;;19.50;65.10;;;;;;5051934;28;20028;-67
2022/06/17 00:20:33;;;;;;;3.70;2.13;;;19.50;64.90;;;;;;5051892;28;20568;-67
2022/06/17 00:22:59;;;;;;;3.17;2.17;;;19.50;64.70;;;;;;5057039;28;20436;-66
2022/06/17 00:25:31;;;;;;;3.53;2.08;;;19.50;65.00;;;;;;5062837;28;20063;-67
2022/06/17 00:27:57;;;;;;;3.60;2.40;;;19.40;65.00;;;;;;5054175;28;20086;-66
2022/06/17 00:30:25;;;;;;;4.00;2.20;;;19.50;65.00;;;;;;5051612;28;20021;-67
2022/06/17 00:32:56;;;;;;;3.88;2.63;;;19.50;65.00;;;;;;5056743;28;20017;-67
2022/06/17 00:35:24;;;;;;;4.53;2.42;;;19.50;65.10;;;;;;5052229;28;20029;-68
2022/06/17 00:37:49;;;;;;;3.83;2.00;;;19.50;65.10;;;;;;5060083;28;20028;-67
2022/06/17 00:40:21;;;;;;;4.05;2.30;;;19.50;65.00;;;;;;5053548;28;20082;-67
2022/06/17 00:42:46;;;;;;;4.57;1.95;;;19.50;65.00;;;;;;5054812;28;20043;-67
2022/06/17 00:45:16;;;;;;;5.90;2.40;;;19.50;65.20;;;;;;5053567;28;20039;-67
2022/06/17 00:48:09;;;;;;;4.80;1.80;;;19.40;65.20;;;;;;5068184;28;20017;-67
2022/06/17 00:50:45;;;;;;;3.63;1.83;;;19.40;65.10;;;;;;5062208;28;20028;-67
2022/06/17 00:53:17;;;;;;;4.28;1.98;;;19.40;65.10;;;;;;5058150;28;20029;-67
2022/06/17 00:55:48;;;;;;;2.90;1.83;;;19.30;65.30;;;;;;5054276;28;20032;-67
2022/06/17 00:58:22;;;;;;;4.78;1.95;;;19.30;65.20;;;;;;5067419;28;20033;-67
2022/06/17 01:00:53;;;;;;;5.30;2.10;;;19.30;65.30;;;;;;5078914;28;20024;-67
2022/06/17 01:03:24;;;;;;;4.65;2.20;;;19.30;65.10;;;;;;5072479;28;20028;-67
2022/06/17 01:05:59;;;;;;;4.45;2.05;;;19.20;65.60;;;;;;5078358;28;20052;-67
2022/06/17 01:11:23;;;;;;;5.45;2.05;;;19.20;65.20;;;;;;5059764;28;20047;-67
2022/06/17 01:13:50;;;;;;;3.53;2.20;;;19.20;65.20;;;;;;5060077;28;20075;-66
2022/06/17 01:16:18;;;;;;;4.35;2.20;;;19.10;65.30;;;;;;5056691;28;20033;-67
2022/06/17 01:18:46;;;;;;;5.28;2.22;;;19.10;65.40;;;;;;5067906;28;20044;-67
2022/06/17 01:21:25;;;;;;;5.65;2.25;;;19.10;65.60;;;;;;5069347;28;20036;-67
2022/06/17 01:23:52;;;;;;;4.20;2.10;;;19.10;65.60;;;;;;5072894;28;20033;-67
2022/06/17 01:26:17;;;;;;;5.57;2.60;;;19.00;65.60;;;;;;5058122;28;20040;-67
2022/06/17 01:28:43;;;;;;;4.82;2.00;;;18.90;65.80;;;;;;5058101;28;20025;-67
2022/06/17 01:31:09;;;;;;;3.28;2.03;;;19.00;65.90;;;;;;5070258;28;20028;-66
2022/06/17 01:33:37;;;;;;;3.30;1.60;;;18.90;65.90;;;;;;5063766;28;20434;-66
2022/06/17 01:36:15;;;;;;;3.55;1.80;;;18.80;66.20;;;;;;5053789;28;20108;-66
2022/06/17 01:38:46;;;;;;;4.28;2.10;;;18.80;66.30;;;;;;5055083;28;20071;-66
2022/06/17 01:41:14;;;;;;;3.00;1.70;;;18.80;66.40;;;;;;5054187;28;20068;-66
2022/06/17 01:43:53;;;;;;;3.13;1.90;;;18.70;66.70;;;;;;5054257;28;20029;-67
2022/06/17 01:46:23;;;;;;;2.72;1.67;;;18.70;67.00;;;;;;5070434;28;20028;-67
2022/06/17 01:48:59;;;;;;;4.55;1.80;;;18.60;67.10;;;;;;5071561;28;20044;-67
2022/06/17 01:51:27;;;;;;;3.10;1.90;;;18.60;67.20;;;;;;5054245;28;20051;-66
2022/06/17 01:53:57;;;;;;;3.88;1.70;;;18.60;67.30;;;;;;5054121;28;20119;-67
2022/06/17 01:56:28;;;;;;;3.65;2.30;;;18.60;67.30;;;;;;5069371;28;20037;-67
2022/06/17 01:58:59;;;;;;;4.57;2.03;;;18.60;67.50;;;;;;5061836;28;20048;-67
2022/06/17 02:01:28;;;;;;;3.72;2.00;;;18.60;67.70;;;;;;5069502;28;20067;-67
2022/06/17 02:03:59;;;;;;;3.58;1.73;;;18.50;67.90;;;;;;5062529;28;20056;-67
2022/06/17 02:06:38;;;;;;;3.00;1.90;;;18.40;68.00;;;;;;5072000;28;20039;-67
2022/06/17 02:09:04;;;;;;;3.85;2.28;;;18.40;68.30;;;;;;5060973;28;20064;-67
2022/06/17 02:11:31;;;;;;;4.25;2.10;;;18.40;68.50;;;;;;5053569;28;20032;-67
2022/06/17 02:13:57;;;;;;;4.97;2.25;;;18.40;68.50;;;;;;5061952;28;20032;-66
2022/06/17 02:16:23;;;;;;;2.95;1.88;;;18.40;68.70;;;;;;5070707;28;20033;-66
2022/06/17 02:18:50;;;;;;;3.63;1.90;;;18.30;68.80;;;;;;5064901;28;20056;-66
2022/06/17 02:21:33;;;;;;;4.00;1.80;;;18.30;69.00;;;;;;5069465;28;20028;-68
2022/06/17 02:24:00;;;;;;;1.95;1.60;;;18.30;69.10;;;;;;5069781;28;20032;-68
2022/06/17 02:26:27;;;;;;;3.53;1.90;;;18.30;69.30;;;;;;5053718;28;20029;-65
2022/06/17 02:28:53;;;;;;;3.30;1.75;;;18.30;69.20;;;;;;5052984;28;20029;-64
2022/06/17 02:31:19;;;;;;;2.75;1.65;;;18.20;69.60;;;;;;5056551;28;20530;-66
2022/06/17 02:33:49;;;;;;;4.30;1.80;;;18.20;69.60;;;;;;5053423;28;20059;-66
2022/06/17 02:36:26;;;;;;;3.45;1.60;;;18.20;69.80;;;;;;5068689;28;20500;-65
2022/06/17 02:38:52;;;;;;;2.83;1.85;;;18.20;69.90;;;;;;5061333;28;20052;-65
2022/06/17 02:41:19;;;;;;;2.60;1.65;;;18.10;70.00;;;;;;5052614;28;20029;-65
2022/06/17 02:43:59;;;;;;;2.97;1.90;;;18.10;70.10;;;;;;5053032;28;20114;-66
2022/06/17 02:46:30;;;;;;;2.88;1.88;;;18.10;70.20;;;;;;5054791;28;20025;-66
2022/06/17 02:49:01;;;;;;;4.63;2.20;;;18.10;70.40;;;;;;5072305;28;20066;-66
2022/06/17 02:51:31;;;;;;;3.08;2.13;;;18.10;70.50;;;;;;5053626;28;20036;-66
2022/06/17 02:53:58;;;;;;;4.40;2.22;;;18.10;70.70;;;;;;5061099;28;20029;-66
2022/06/17 02:56:27;;;;;;;4.30;1.90;;;18.10;70.70;;;;;;5069346;28;20418;-66
2022/06/17 02:59:12;;;;;;;4.50;2.67;;;18.10;70.80;;;;;;5059779;28;20060;-66
2022/06/17 03:01:40;;;;;;;3.50;2.10;;;18.10;71.00;;;;;;5062038;28;20024;-66
2022/06/17 03:04:13;;;;;;;4.30;2.22;;;18.10;71.00;;;;;;5072302;28;20037;-66
2022/06/17 03:06:42;;;;;;;4.75;2.00;;;18.10;71.20;;;;;;5072088;28;20060;-66
2022/06/17 03:09:31;;;;;;;4.43;2.58;;;18.10;71.30;;;;;;5069636;28;20044;-66
2022/06/17 03:11:59;;;;;;;3.60;2.50;;;18.10;71.30;;;;;;5052012;28;20472;-66
2022/06/17 03:14:30;;;;;;;4.78;2.60;;;18.00;71.50;;;;;;5053352;28;20115;-65
2022/06/17 03:17:02;;;;;;;2.97;2.05;;;18.00;71.80;;;;;;5072057;28;20379;-65
2022/06/17 03:19:29;;;;;;;3.15;2.03;;;18.00;71.90;;;;;;5055162;28;20131;-66
2022/06/17 03:21:55;;;;;;;3.20;2.40;;;18.00;72.00;;;;;;5069537;28;20032;-65
2022/06/17 03:24:34;;;;;;;4.13;2.42;;;18.00;72.20;;;;;;5069479;28;20024;-66
2022/06/17 03:27:07;;;;;;;4.10;2.80;;;18.00;72.10;;;;;;5051908;28;20086;-66
2022/06/17 03:29:34;;;;;;;6.22;2.60;;;18.10;72.10;;;;;;5054670;28;20028;-66
2022/06/17 03:32:05;;;;;;;3.40;1.88;;;18.10;71.90;;;;;;5051835;28;20025;-66
2022/06/17 03:34:36;;;;;;;4.20;2.05;;;18.10;71.90;;;;;;5052554;28;20056;-66
2022/06/17 03:37:28;;;;;;;5.95;2.58;;;18.00;71.90;;;;;;5051631;28;20028;-66
2022/06/17 03:40:06;;;;;;;3.92;2.17;;;18.10;72.00;;;;;;5065181;28;20052;-66
2022/06/17 03:42:56;;;;;;;5.00;2.40;;;18.00;71.80;;;;;;5059407;28;20083;-66
2022/06/17 03:45:26;;;;;;;5.22;2.38;;;18.10;72.00;;;;;;5060711;28;20056;-66
2022/06/17 03:47:59;;;;;;;2.75;2.03;;;18.10;71.90;;;;;;5065077;28;20029;-66
2022/06/17 03:50:32;;;;;;;5.22;2.00;;;18.10;72.00;;;;;;5060469;28;20072;-66
2022/06/17 03:53:02;;;;;;;3.45;2.10;;;18.10;71.80;;;;;;5066446;28;20028;-66
2022/06/17 03:55:29;;;;;;;5.18;2.70;;;18.20;71.80;;;;;;5059253;28;20031;-66
2022/06/17 03:57:56;;;;;;;5.30;2.17;;;18.20;71.90;;;;;;5066078;28;20033;-66
2022/06/17 04:00:35;;;;;;;2.35;1.83;;;18.20;72.10;;;;;;5060255;28;20033;-66
2022/06/17 04:03:02;;;;;;;4.70;2.08;;;18.20;71.90;;;;;;5065101;28;20031;-66
2022/06/17 04:05:29;;;;;;;4.97;2.30;;;18.20;71.80;;;;;;5052440;28;20040;-66
2022/06/17 04:07:55;;;;;;;3.60;2.33;;;18.20;71.70;;;;;;5055480;28;20044;-66
2022/06/17 04:10:24;;;;;;;4.63;2.22;;;18.20;72.00;;;;;;5067845;28;20387;-66
2022/06/17 04:12:51;;;;;;;3.92;2.50;;;18.30;72.10;;;;;;5050658;28;20079;-66
2022/06/17 04:15:40;;;;;;;4.65;2.60;;;18.30;72.20;;;;;;5052101;28;20032;-66
2022/06/17 04:18:08;;;;;;;4.88;2.38;;;18.30;72.10;;;;;;5050904;28;20044;-66
2022/06/17 04:20:43;;;;;;;4.53;2.35;;;18.30;72.00;;;;;;5060803;28;20036;-66
2022/06/17 04:23:17;;;;;;;4.78;2.60;;;18.30;72.20;;;;;;5050819;28;20078;-66
2022/06/17 04:25:58;;;;;;;4.45;2.60;;;18.40;72.30;;;;;;5059914;28;20058;-66
2022/06/17 04:28:28;;;;;;;6.10;3.08;;;18.40;72.30;;;;;;5054463;28;20025;-66
2022/06/17 04:31:06;;;;;;;4.18;2.40;;;18.50;72.40;;;;;;5053240;28;20082;-66
2022/06/17 04:33:41;;;;;;;3.70;2.42;;;18.50;72.50;;;;;;5055745;28;20521;-66
2022/06/17 04:36:13;;;;;;;5.72;2.90;;;18.50;72.50;;;;;;5070291;28;20032;-66
2022/06/17 04:38:50;;;;;;;5.22;2.88;;;18.50;72.60;;;;;;5070735;28;20041;-66
2022/06/17 04:41:18;;;;;;;6.05;3.00;;;18.50;72.70;;;;;;5063838;28;20029;-66
2022/06/17 04:43:47;;;;;;;5.18;2.72;;;18.50;72.80;;;;;;5074952;28;20032;-67
2022/06/17 04:46:18;;;;;;;8.23;2.85;;;18.50;72.90;;;;;;5056849;28;20029;-67
2022/06/17 04:48:44;;;;;;;6.18;2.90;;;18.50;72.90;;;;;;5069517;28;20025;-67
2022/06/17 04:51:10;;;;;;;4.18;2.42;;;18.50;73.00;;;;;;5061593;28;20120;-68
2022/06/17 04:53:38;;;;;;;5.35;2.63;;;18.60;73.20;;;;;;5058679;28;20419;-67
2022/06/17 04:56:08;;;;;;;4.45;2.53;;;18.60;73.30;;;;;;5071782;28;20032;-68
2022/06/17 04:58:33;;;;;;;4.57;2.80;;;18.60;73.40;;;;;;5068055;28;20037;-68
2022/06/17 05:00:59;;;;;;;4.80;2.75;;;18.60;73.60;;;;;;5072870;28;20047;-69
2022/06/17 05:03:29;;;;;;;4.85;2.80;;;18.60;73.60;;;;;;5072900;28;20388;-68
2022/06/17 05:05:55;;;;;;;5.45;3.30;;;18.70;73.80;;;;;;5060045;28;20025;-67
2022/06/17 05:08:25;;;;;;;6.40;3.20;;;18.70;73.70;;;;;;5073051;28;20343;-65
2022/06/17 05:10:58;;;;;;;4.07;3.03;;;18.80;73.80;;;;;;5064767;28;20538;-66
2022/06/17 05:13:55;;;;;;;5.05;3.17;;;18.80;73.80;;;;;;5054165;28;20037;-67
2022/06/17 05:16:22;;;;;;;4.47;3.08;;;18.80;73.60;;;;;;5055039;28;20056;-64
2022/06/17 05:18:50;;;;;;;7.43;3.85;;;18.80;73.70;;;;;;5077588;28;20040;-66
2022/06/17 05:21:22;;;;;;;5.10;3.00;;;18.90;74.00;;;;;;5059055;28;20028;-67
2022/06/17 05:23:50;;;;;;;6.30;3.10;;;18.80;73.90;;;;;;5065882;28;20044;-68
2022/06/17 05:26:16;;;;;;;4.93;2.95;;;18.80;74.00;;;;;;5066840;28;20432;-68
2022/06/17 05:28:42;;;;;;;5.28;2.97;;;18.80;73.90;;;;;;5057100;28;20162;-68
2022/06/17 05:31:13;;;;;;;7.32;2.95;;;18.90;74.00;;;;;;5066841;28;20090;-67
2022/06/17 05:33:38;;;;;;;8.88;3.55;;;19.00;74.10;;;;;;5071369;28;20032;-66
2022/06/17 05:36:04;;;;;;;6.30;3.60;;;19.00;74.00;;;;;;5070403;28;20540;-68
2022/06/17 05:38:30;;;;;;;7.88;3.80;;;19.00;73.90;;;;;;5060872;28;20044;-67
2022/06/17 05:40:56;;;;;;;6.90;3.45;;;19.00;73.80;;;;;;5059216;28;20023;-67
2022/06/17 05:43:22;;;;;;;4.65;3.38;;;19.00;73.90;;;;;;5057661;28;20029;-68
2022/06/17 05:45:47;;;;;;;4.78;3.03;;;19.00;73.90;;;;;;5053995;28;20559;-67
2022/06/17 05:48:13;;;;;;;9.85;3.13;;;19.10;73.90;;;;;;5053363;28;20488;-67
2022/06/17 05:50:39;;;;;;;4.47;3.20;;;19.10;73.80;;;;;;5061128;28;20035;-69
2022/06/17 05:53:06;;;;;;;8.70;3.67;;;19.20;73.90;;;;;;5053307;28;20060;-67
2022/06/17 05:55:34;;;;;;;4.38;3.08;;;19.20;73.80;;;;;;5064880;28;20027;-67
2022/06/17 05:58:00;;;;;;;6.47;3.80;;;19.30;73.70;;;;;;5071877;28;20032;-66
2022/06/17 06:00:27;;;;;;;5.75;3.13;;;19.30;73.40;;;;;;5064665;28;20094;-67
2022/06/17 06:03:01;;;;;;;4.45;3.30;;;19.30;73.40;;;;;;5053549;28;20055;-67
2022/06/17 06:05:30;;;;;;;4.25;3.25;;;19.40;73.20;;;;;;5054081;28;20705;-67
2022/06/17 06:07:55;;;;;;;5.60;3.35;;;19.40;72.90;;;;;;5059538;28;20052;-67
2022/06/17 06:10:22;;;;;;;5.22;3.30;;;19.40;72.70;;;;;;5068862;28;20074;-67
2022/06/17 06:12:53;;;;;;;8.10;3.92;;;19.40;72.90;;;;;;5065755;28;20074;-67
2022/06/17 06:15:24;;;;;;;4.97;2.75;;;19.40;73.10;;;;;;5063399;28;20468;-67
2022/06/17 06:17:49;;;;;;;6.70;3.22;;;19.40;73.00;;;;;;5064234;28;20078;-67
2022/06/17 06:20:16;;;;;;;7.50;3.40;;;19.50;73.00;;;;;;5067294;28;20036;-67
2022/06/17 06:22:41;;;;;;;5.07;2.80;;;19.50;72.90;;;;;;5063768;28;20392;-68
2022/06/17 06:25:09;;;;;;;14.50;3.90;;;19.60;72.70;;;;;;5057138;28;20025;-68
2022/06/17 06:27:35;;;;;;;7.72;3.17;;;19.60;72.70;;;;;;5058528;28;20040;-68
2022/06/17 06:30:00;;;;;;;4.47;2.90;;;19.70;72.80;;;;;;5053441;28;20017;-68
2022/06/17 06:32:26;;;;;;;5.50;3.10;;;19.70;72.80;;;;;;5063207;28;20032;-78
2022/06/17 06:34:52;;;;;;;7.93;3.45;;;19.70;72.80;;;;;;5051844;28;20081;-74
2022/06/17 06:37:19;;;;;;;4.38;2.90;;;19.80;72.70;;;;;;5055947;28;20431;-73
2022/06/17 06:39:45;;;;;;;5.05;3.17;;;19.80;72.70;;;;;;5062880;28;20040;-73
2022/06/17 06:42:11;;;;;;;5.43;2.97;;;19.80;72.80;;;;;;5067627;28;20096;-73
2022/06/17 06:44:36;;;;;;;5.90;3.28;;;19.90;72.70;;;;;;5059061;28;20355;-73
2022/06/17 06:47:02;;;;;;;5.75;3.00;;;20.00;72.20;;;;;;5066408;28;20379;-72
2022/06/17 06:49:28;;;;;;;7.00;2.80;;;20.10;72.00;;;;;;5068253;28;20119;-73
2022/06/17 06:51:53;;;;;;;8.63;3.25;;;20.10;72.00;;;;;;5061788;28;20171;-73
2022/06/17 06:54:19;;;;;;;5.00;2.95;;;20.20;72.20;;;;;;5062035;28;20078;-73
2022/06/17 06:56:44;;;;;;;5.55;3.13;;;20.20;72.00;;;;;;5068111;28;20506;-72
2022/06/17 06:59:14;;;;;;;5.18;2.65;;;20.30;71.80;;;;;;5060502;28;20052;-72
2022/06/17 07:01:39;;;;;;;7.03;3.28;;;20.40;71.50;;;;;;5068089;28;20020;-73
2022/06/17 07:04:05;;;;;;;7.05;3.10;;;20.40;71.40;;;;;;5069601;28;20036;-72
2022/06/17 07:06:33;;;;;;;5.88;3.08;;;20.40;71.30;;;;;;5058849;28;20025;-72
2022/06/17 07:08:58;;;;;;;5.82;3.08;;;20.40;71.20;;;;;;5051694;28;20045;-73
2022/06/17 07:11:24;;;;;;;6.78;3.83;;;20.50;71.00;;;;;;5067871;28;20032;-73
2022/06/17 07:13:49;;;;;;;5.57;2.90;;;20.50;70.70;;;;;;5071284;28;20032;-72
2022/06/17 07:16:15;;;;;;;5.25;3.25;;;20.60;70.70;;;;;;5055087;28;20530;-75
2022/06/17 07:18:40;;;;;;;5.18;3.15;;;20.70;70.40;;;;;;5066092;28;20029;-73
2022/06/17 07:21:12;;;;;;;4.45;2.92;;;20.70;70.20;;;;;;5065486;28;20016;-73
2022/06/17 07:23:43;;;;;;;7.07;3.42;;;20.80;70.30;;;;;;5069033;28;20024;-73
2022/06/17 07:26:17;;;;;;;6.85;3.15;;;20.80;70.30;;;;;;5078505;28;20059;-72
2022/06/17 07:28:43;;;;;;;9.05;3.75;;;20.90;70.30;;;;;;5070588;28;20466;-72
2022/06/17 07:31:09;;;;;;;5.10;3.22;;;21.00;69.80;;;;;;5065898;28;20039;-74
2022/06/17 07:33:35;;;;;;;6.30;3.05;;;21.10;69.50;;;;;;5070131;28;20032;-74
2022/06/17 07:36:02;;;;;;;5.35;2.97;;;21.10;69.30;;;;;;5068647;28;20052;-74
2022/06/17 07:41:18;;;;;;;5.03;2.78;;;21.20;68.60;;;;;;5067842;28;20028;-73
2022/06/17 07:43:44;;;;;;;4.47;2.33;;;21.30;68.70;;;;;;5070848;28;20032;-74
2022/06/17 07:46:10;;;;;;;4.28;2.38;;;21.40;68.30;;;;;;5068474;28;20415;-74
2022/06/17 07:48:38;;;;;;;9.77;2.83;;;21.40;68.30;;;;;;5070524;28;20059;-73
2022/06/17 07:51:04;;;;;;;6.07;2.50;;;21.50;67.90;;;;;;5056096;28;20384;-73
2022/06/17 07:53:31;;;;;;;5.07;2.53;;;21.60;67.50;;;;;;5054730;28;20028;-74
2022/06/17 07:56:00;;;;;;;5.78;2.55;;;21.70;67.40;;;;;;5068343;28;20452;-75
2022/06/17 07:58:27;;;;;;;4.40;2.40;;;21.70;67.40;;;;;;5069436;28;20040;-74
2022/06/17 08:00:53;;;;;;;5.45;2.50;;;21.80;67.20;;;;;;5067961;28;20561;-74
2022/06/17 08:03:19;;;;;;;3.70;2.60;;;21.90;67.10;;;;;;5067261;28;20029;-74
2022/06/17 08:05:49;;;;;;;4.45;2.60;;;21.90;66.80;;;;;;5061901;28;20529;-74
2022/06/17 08:08:21;;;;;;;5.32;3.13;;;21.90;66.70;;;;;;5069450;28;20442;-73
2022/06/17 08:10:49;;;;;;;3.55;2.20;;;21.90;66.30;;;;;;5065028;28;20024;-74
2022/06/17 08:13:15;;;;;;;5.95;2.80;;;22.00;66.00;;;;;;5069396;28;20111;-74
2022/06/17 08:15:40;;;;;;;3.75;2.10;;;22.10;66.40;;;;;;5064980;28;20172;-74
2022/06/17 08:18:06;;;;;;;6.47;2.70;;;22.10;65.90;;;;;;5070923;28;20033;-74
2022/06/17 08:20:34;;;;;;;3.58;2.40;;;22.10;64.80;;;;;;5058889;28;20029;-74
2022/06/17 08:23:02;;;;;;;3.20;2.35;;;22.10;65.20;;;;;;5054517;28;20054;-73
2022/06/17 08:25:29;;;;;;;4.55;2.85;;;22.20;65.00;;;;;;5051089;28;20024;-72
2022/06/17 08:27:56;;;;;;;4.30;2.20;;;22.30;64.60;;;;;;5060199;28;20045;-74
2022/06/17 08:30:27;;;;;;;4.30;2.28;;;22.30;64.80;;;;;;5066989;28;20174;-74
2022/06/17 08:32:55;;;;;;;5.32;2.40;;;22.40;64.40;;;;;;5070152;28;20031;-73
2022/06/17 08:35:45;;;;;;;4.13;2.25;;;22.40;64.30;;;;;;5061961;28;20055;-72
2022/06/17 08:38:31;;;;;;;5.10;2.78;;;22.40;64.30;;;;;;5070156;28;20036;-74
2022/06/17 08:41:12;;;;;;;2.70;2.00;;;22.50;63.20;;;;;;5051688;28;20029;-74
2022/06/17 08:43:53;;;;;;;3.88;2.17;;;22.60;62.50;;;;;;5064877;28;20056;-74
2022/06/17 08:46:35;;;;;;;5.28;2.03;;;22.50;62.30;;;;;;5069401;28;20082;-75
2022/06/17 08:49:21;;;;;;;4.28;1.92;;;22.60;61.70;;;;;;5069164;28;20029;-75
2022/06/17 08:52:05;;;;;;;4.35;2.00;;;22.60;60.90;;;;;;5050775;28;20032;-73
2022/06/17 08:54:33;;;;;;;4.97;2.30;;;22.60;60.60;;;;;;5066499;28;20487;-73
2022/06/17 08:57:15;;;;;;;4.35;1.85;;;22.60;61.00;;;;;;5070702;28;20078;-73
2022/06/17 09:00:15;;;;;;;4.15;2.00;;;22.70;61.40;;;;;;5065764;28;20492;-73
2022/06/17 09:03:10;;;;;;;2.85;1.77;;;22.80;61.50;;;;;;5061176;28;20028;-73
2022/06/17 09:05:41;;;;;;;7.63;2.13;;;22.90;61.50;;;;;;5070000;28;20114;-73
2022/06/17 09:08:40;;;;;;;3.40;1.90;;;22.90;60.50;;;;;;5058936;28;20055;-74
2022/06/17 09:11:20;;;;;;;3.90;1.77;;;23.00;60.60;;;;;;5055824;28;20044;-74
2022/06/17 09:14:03;;;;;;;4.35;1.80;;;23.10;60.00;;;;;;5065607;28;20032;-74
2022/06/17 09:16:46;;;;;;;5.28;2.35;;;23.20;59.40;;;;;;5051778;28;20477;-74
2022/06/17 09:19:19;;;;;;;2.78;1.85;;;23.20;59.10;;;;;;5071391;28;20044;-74
2022/06/17 09:21:56;;;;;;;6.38;2.00;;;23.20;58.50;;;;;;5070200;28;20131;-74
2022/06/17 09:24:27;;;;;;;6.40;1.98;;;23.20;58.20;;;;;;5075147;28;20115;-75
2022/06/17 09:27:04;;;;;;;6.43;1.80;;;23.30;57.70;;;;;;5086222;28;20078;-74
2022/06/17 09:29:42;;;;;;;2.72;1.70;;;23.40;57.40;;;;;;5054358;28;20052;-74
2022/06/17 09:32:31;;;;;;;3.15;1.55;;;23.40;56.90;;;;;;5055439;28;20112;-74
2022/06/17 09:35:20;;;;;;;5.18;2.00;;;23.40;56.40;;;;;;5054711;28;20029;-74
2022/06/17 09:38:02;;;;;;;2.28;1.67;;;23.50;56.20;;;;;;5053109;28;20037;-75
2022/06/17 09:40:29;;;;;;;3.78;1.50;;;23.60;56.60;;;;;;5061859;28;20025;-74
2022/06/17 09:43:11;;;;;;;2.83;1.73;;;23.60;56.30;;;;;;5068083;28;21337;-74
2022/06/17 09:45:44;;;;;;;4.20;1.70;;;23.70;56.60;;;;;;5073746;28;20028;-75
2022/06/17 09:48:38;;;;;;;3.28;1.90;;;23.70;55.90;;;;;;5058417;28;20027;-75
2022/06/17 09:51:16;;;;;;;3.03;1.50;;;23.70;56.20;;;;;;5073821;28;20086;-75
2022/06/17 09:53:51;;;;;;;3.67;1.60;;;23.80;56.40;;;;;;5072706;28;20167;-76
2022/06/17 09:56:30;;;;;;;4.32;1.83;;;23.80;55.90;;;;;;5074044;28;20024;-76
2022/06/17 09:59:04;;;;;;;2.97;2.03;;;23.90;56.30;;;;;;5069025;28;20040;-75
2022/06/17 10:01:31;;;;;;;3.83;1.70;;;24.00;55.80;;;;;;5072572;28;20024;-75
2022/06/17 10:03:57;;;;;;;4.55;1.42;;;24.10;55.30;;;;;;5072684;28;20029;-74
2022/06/17 10:06:28;;;;;;;3.80;1.83;;;24.10;54.70;;;;;;5069152;28;20078;-74
2022/06/17 10:09:24;;;;;;;6.70;1.98;;;24.10;53.70;;;;;;5073089;28;20204;-75
2022/06/17 10:12:00;;;;;;;3.83;1.65;;;24.10;54.90;;;;;;5072561;28;20085;-75
2022/06/17 10:14:44;;;;;;;;;;;24.20;54.10;;;;;;5073809;28;20020;-75
2022/06/17 10:20:33;;;;;;;2.70;1.50;;;24.30;55.20;;;;;;5073162;28;20047;-73
2022/06/17 10:23:21;;;;;;;3.00;1.70;;;24.40;54.00;;;;;;5058202;28;20067;-73
2022/06/17 10:26:04;;;;;;;3.10;1.70;;;24.50;53.90;;;;;;5077454;28;20031;-73
2022/06/17 10:28:58;;;;;;;5.05;1.88;;;24.50;53.90;;;;;;5053000;28;20029;-72
2022/06/17 10:31:39;;;;;;;2.72;1.40;;;24.70;54.30;;;;;;5072474;28;20094;-73
2022/06/17 10:34:15;;;;;;;3.17;1.50;;;24.70;53.40;;;;;;5071832;28;20055;-72
2022/06/17 10:36:43;;;;;;;3.55;1.50;;;24.70;52.90;;;;;;5064078;28;20101;-72
2022/06/17 10:39:11;;;;;;;5.70;1.70;;;24.80;53.30;;;;;;5065495;28;20036;-73
2022/06/17 10:41:37;;;;;;;4.13;1.75;;;24.90;53.50;;;;;;5061087;28;20104;-73
2022/06/17 10:44:07;;;;;;;5.93;1.58;;;25.00;53.70;;;;;;5034848;28;20029;-72
2022/06/17 10:46:39;;;;;;;3.45;1.60;;;25.00;51.80;;;;;;5070757;28;20029;-67
2022/06/17 10:49:27;;;;;;;2.95;1.70;;;25.00;52.50;;;;;;5072615;28;20116;-67
2022/06/17 10:51:54;;;;;;;2.28;1.30;;;25.10;52.40;;;;;;5072704;28;20021;-67
2022/06/17 10:54:29;;;;;;;4.22;1.77;;;25.10;51.90;;;;;;5066702;28;20029;-67
2022/06/17 10:57:22;;;;;;;3.88;1.60;;;25.10;52.30;;;;;;5052713;28;20052;-67
2022/06/17 10:59:48;;;;;;;3.55;1.67;;;25.20;53.00;;;;;;5057861;28;20053;-67
2022/06/17 11:02:25;;;;;;;2.17;1.40;;;25.20;52.70;;;;;;5072241;28;20032;-68
2022/06/17 11:04:55;;;;;;;3.13;1.60;;;25.30;52.20;;;;;;5057556;28;20033;-68
2022/06/17 11:07:32;;;;;;;8.45;1.88;;;25.30;51.50;;;;;;5056173;28;20025;-68
2022/06/17 11:10:03;;;;;;;4.80;1.55;;;25.30;51.20;;;;;;5071262;28;20036;-68
2022/06/17 11:12:38;;;;;;;4.40;1.70;;;25.40;51.70;;;;;;5062273;28;20041;-68
2022/06/17 11:15:19;;;;;;;2.20;1.33;;;25.50;51.90;;;;;;5069135;28;20094;-67
2022/06/17 11:17:50;;;;;;;2.63;1.48;;;25.50;51.50;;;;;;5068710;28;20060;-67
2022/06/17 11:20:16;;;;;;;3.83;1.55;;;25.60;50.70;;;;;;5064383;28;20430;-67
2022/06/17 11:22:55;;;;;;;5.50;2.25;;;25.50;50.40;;;;;;5056898;28;20031;-67
2022/06/17 11:25:35;;;;;;;2.47;1.55;;;25.60;50.50;;;;;;5039424;28;20037;-67
2022/06/17 11:28:31;;;;;;;4.75;1.48;;;25.60;50.70;;;;;;5046527;28;20095;-67
2022/06/17 11:31:03;;;;;;;2.97;1.65;;;25.60;50.40;;;;;;5043181;28;20028;-67
2022/06/17 11:33:32;;;;;;;2.90;1.40;;;25.70;50.00;;;;;;5046128;28;20502;-67
2022/06/17 11:36:06;;;;;;;3.17;1.50;;;25.70;50.00;;;;;;5047397;28;20381;-67
2022/06/17 11:38:33;;;;;;;2.60;1.58;;;25.80;50.20;;;;;;5046727;28;20024;-67
2022/06/17 11:41:02;;;;;;;3.03;1.70;;;25.80;50.90;;;;;;5047038;28;20451;-66
2022/06/17 11:43:40;;;;;;;2.47;1.55;;;25.90;50.00;;;;;;5045609;28;20041;-67
2022/06/17 11:46:13;;;;;;;2.35;1.65;;;25.80;49.60;;;;;;5049492;28;20373;-67
2022/06/17 11:48:54;;;;;;;3.30;1.50;;;25.90;49.80;;;;;;5046377;28;20726;-68
2022/06/17 11:51:41;;;;;;;3.58;1.60;;;25.90;49.70;;;;;;5046909;28;20036;-67
2022/06/17 11:54:23;;;;;;;5.75;1.75;;;26.00;49.70;;;;;;5046759;28;20131;-67
2022/06/17 11:56:51;;;;;;;2.22;1.77;;;26.00;49.70;;;;;;5046349;28;20037;-67
2022/06/17 11:59:23;;;;;;;3.33;1.80;;;26.10;49.10;;;;;;5047106;28;20044;-67
2022/06/17 12:02:06;;;;;;;3.80;1.80;;;26.10;49.10;;;;;;5046115;28;20409;-67
2022/06/17 12:04:42;;;;;;;2.60;1.58;;;26.10;48.90;;;;;;5047239;28;20021;-67
2022/06/17 12:07:46;;;;;;;1.88;1.50;;;26.20;48.90;;;;;;5046086;28;20038;-67
2022/06/17 12:10:26;;;;;;;2.63;1.42;;;26.30;49.40;;;;;;5047118;28;20040;-67
2022/06/17 12:12:55;;;;;;;2.25;1.48;;;26.40;49.30;;;;;;5047596;28;20032;-67
2022/06/17 12:15:41;;;;;;;2.88;1.90;;;26.50;48.80;;;;;;5047608;28;20029;-67
2022/06/17 12:18:26;;;;;;;1.77;1.30;;;26.60;48.90;;;;;;5045804;28;20040;-67
2022/06/17 12:21:12;;;;;;;5.30;1.83;;;26.70;48.50;;;;;;5047779;28;20033;-67
2022/06/17 12:23:49;;;;;;;2.88;1.58;;;26.80;47.90;;;;;;5045543;28;20029;-67
2022/06/17 12:26:26;;;;;;;2.30;1.40;;;26.80;47.30;;;;;;5066026;28;20391;-67
2022/06/17 12:29:06;;;;;;;3.28;1.42;;;26.70;46.80;;;;;;5046616;28;20029;-67
2022/06/17 12:31:36;;;;;;;1.77;1.25;;;26.80;47.40;;;;;;5045795;28;20559;-66
2022/06/17 12:34:28;;;;;;;4.38;1.50;;;26.80;46.60;;;;;;5046638;28;20170;-66
2022/06/17 12:36:58;;;;;;;6.97;1.55;;;26.80;46.50;;;;;;5045797;28;20029;-67
2022/06/17 12:39:55;;;;;;;1.88;1.20;;;26.80;47.10;;;;;;5046084;28;20388;-67
2022/06/17 12:42:47;;;;;;;1.65;1.30;;;27.00;47.70;;;;;;5053355;28;20521;-67
2022/06/17 12:45:28;;;;;;;5.32;1.60;;;27.10;47.90;;;;;;5020213;28;20040;-67
2022/06/17 12:48:16;;;;;;;1.95;1.23;;;27.30;48.00;;;;;;5045915;28;20687;-67
2022/06/17 12:54:12;;;;;;;1.25;1.10;;;27.40;47.20;;;;;;5046706;28;20040;-68
2022/06/17 12:56:38;;;;;;;2.08;1.60;;;27.50;47.50;;;;;;5050391;28;20028;-67
2022/06/17 12:59:27;;;;;;;1.58;1.30;;;27.60;47.60;;;;;;5048692;28;20118;-67
2022/06/17 13:02:15;;;;;;;1.80;1.23;;;27.80;47.60;;;;;;5051498;28;20047;-68
2022/06/17 13:04:53;;;;;;;8.52;1.58;;;27.90;47.20;;;;;;5051188;28;20033;-68
2022/06/17 13:08:00;;;;;;;3.60;1.70;;;28.10;47.10;;;;;;5050591;28;20083;-68
2022/06/17 13:10:41;;;;;;;3.25;1.50;;;28.20;46.30;;;;;;5050766;28;20028;-67
2022/06/17 13:13:26;;;;;;;1.58;1.17;;;28.20;45.70;;;;;;5050987;28;20036;-67
2022/06/17 13:15:56;;;;;;;3.72;1.30;;;28.20;45.80;;;;;;5051109;28;20098;-67
2022/06/17 13:18:43;;;;;;;3.03;1.35;;;28.30;44.80;;;;;;5050981;28;20028;-67
2022/06/17 13:21:21;;;;;;;2.53;1.70;;;28.40;44.40;;;;;;5052417;28;20136;-67
2022/06/17 13:24:11;;;;;;;2.20;1.23;;;28.30;44.20;;;;;;5049585;28;20103;-68
2022/06/17 13:26:49;;;;;;;1.98;1.30;;;28.30;43.70;;;;;;5046878;28;20055;-68
2022/06/17 13:29:33;;;;;;;4.95;1.40;;;28.30;44.20;;;;;;5056697;28;20025;-68